Terminal Aerodrome Forecast
Issued by NWS

Home | Current Version | Previous Version | Text Only | Print | Product List | Glossary On
Versions: 1 2 3 4 5 6 7 8 9 10 11 12 13 14 15 16 17 18 19 20 21
000
FTUS43 KAPX 131100
TAFPLN
TAF
KPLN 131120Z 1312/1412 27007KT P6SM SCT007
     FM131400 28012G21KT P6SM SCT040
     FM131900 31011G20KT P6SM FEW040
     FM140100 VRB03KT P6SM SKC=

USA.gov is the U.S. government's official web portal to all federal, state and local government web resources and services.